TimeEDT,TemperatureF,Dew PointF,Humidity,Sea Level PressureIn,VisibilityMPH,Wind Direction,Wind SpeedMPH,Gust SpeedMPH,PrecipitationIn,Events,Conditions,WindDirDegrees,DateUTC
12:15 AM,41.2,31.3,68,30.04,10.0,South,4.6,-,N/A,,Overcast,170,2013-05-14 04:15:00
12:35 AM,41.5,30.2,64,30.02,10.0,South,3.5,-,N/A,,Overcast,190,2013-05-14 04:35:00
12:55 AM,42.1,29.3,61,30.02,10.0,Calm,Calm,-,N/A,,Overcast,0,2013-05-14 04:55:00
1:15 AM,42.8,30.2,61,30.01,10.0,SSE,5.8,-,N/A,Rain,Light Rain,160,2013-05-14 05:15:00
1:35 AM,41.4,32.4,70,30.00,10.0,East,6.9,-,N/A,Rain,Light Rain,100,2013-05-14 05:35:00
1:55 AM,41.2,34.2,76,29.99,10.0,ESE,4.6,-,N/A,Rain,Light Rain,120,2013-05-14 05:55:00
2:15 AM,41.5,34.2,75,29.96,10.0,SE,8.1,-,N/A,,Light Drizzle,130,2013-05-14 06:15:00
2:36 AM,41.9,34.0,73,29.94,10.0,ESE,10.4,-,N/A,,Overcast,120,2013-05-14 06:36:00
2:56 AM,42.1,32.2,68,29.93,10.0,SE,11.5,-,N/A,,Overcast,130,2013-05-14 06:56:00
3:16 AM,42.4,32.0,67,29.91,10.0,SE,11.5,-,N/A,,Overcast,140,2013-05-14 07:16:00
3:36 AM,43.2,32.0,65,29.90,10.0,SE,9.2,-,N/A,,Overcast,130,2013-05-14 07:36:00
3:56 AM,43.0,32.2,66,29.88,10.0,SE,6.9,-,N/A,,Overcast,130,2013-05-14 07:56:00
4:16 AM,43.2,32.0,65,29.88,10.0,SE,8.1,-,N/A,,Overcast,130,2013-05-14 08:16:00
4:36 AM,44.1,32.0,63,29.88,10.0,SE,10.4,-,N/A,,Overcast,140,2013-05-14 08:36:00
4:56 AM,44.8,32.0,61,29.86,10.0,SSE,9.2,18.4,N/A,,Light Drizzle,150,2013-05-14 08:56:00
5:16 AM,45.0,31.6,60,29.85,10.0,SSE,13.8,19.6,N/A,,Scattered Clouds,150,2013-05-14 09:16:00
5:36 AM,45.5,31.6,58,29.84,10.0,SE,10.4,18.4,N/A,,Mostly Cloudy,140,2013-05-14 09:36:00
5:57 AM,45.7,31.3,57,29.85,10.0,SE,8.1,-,N/A,,Mostly Cloudy,140,2013-05-14 09:57:00
6:17 AM,46.0,31.1,56,29.82,10.0,SE,12.7,-,N/A,,Scattered Clouds,140,2013-05-14 10:17:00
6:32 AM,46.4,30.9,55,29.82,10.0,SE,12.7,18.4,N/A,,Scattered Clouds,140,2013-05-14 10:32:00
6:52 AM,47.5,30.2,51,29.83,10.0,SE,9.2,-,N/A,,Scattered Clouds,140,2013-05-14 10:52:00
7:12 AM,48.2,30.2,50,29.81,10.0,SE,11.5,-,N/A,,Clear,140,2013-05-14 11:12:00
7:32 AM,49.1,30.0,48,29.80,10.0,SE,6.9,-,N/A,,Clear,130,2013-05-14 11:32:00
7:52 AM,49.3,30.4,48,29.80,10.0,SE,6.9,-,N/A,,Clear,130,2013-05-14 11:52:00
8:12 AM,50.5,30.7,47,29.79,10.0,SE,8.1,-,N/A,,Clear,130,2013-05-14 12:12:00
8:32 AM,52.2,31.5,45,29.78,10.0,SE,8.1,-,N/A,,Clear,140,2013-05-14 12:32:00
8:53 AM,54.1,32.0,43,29.78,10.0,SE,9.2,-,N/A,,Clear,140,2013-05-14 12:53:00
9:13 AM,55.8,32.7,42,29.78,10.0,SE,10.4,16.1,N/A,,Clear,140,2013-05-14 13:13:00
9:33 AM,57.4,33.8,41,29.78,10.0,SSE,9.2,16.1,N/A,,Clear,150,2013-05-14 13:33:00
9:53 AM,59.2,35.4,41,29.77,10.0,South,9.2,-,N/A,,Clear,190,2013-05-14 13:53:00
10:13 AM,61.0,36.5,40,29.75,10.0,South,12.7,23.0,N/A,,Clear,170,2013-05-14 14:13:00
10:33 AM,61.7,37.0,40,29.74,10.0,SSW,12.7,23.0,N/A,,Clear,200,2013-05-14 14:33:00
10:53 AM,63.0,38.5,40,29.75,10.0,SSW,9.2,18.4,N/A,,Clear,210,2013-05-14 14:53:00
11:13 AM,62.8,38.5,41,29.75,10.0,SW,11.5,19.6,N/A,,Clear,230,2013-05-14 15:13:00
11:33 AM,61.7,39.4,44,29.78,10.0,SSW,15.0,21.9,N/A,,Clear,210,2013-05-14 15:33:00
11:54 AM,59.2,39.7,49,29.78,10.0,SW,12.7,19.6,N/A,,Clear,230,2013-05-14 15:54:00
12:14 PM,60.3,41.0,49,29.77,10.0,SSW,12.7,18.4,N/A,,Clear,210,2013-05-14 16:14:00
12:34 PM,59.5,41.2,51,29.78,10.0,SW,13.8,21.9,N/A,,Clear,230,2013-05-14 16:34:00
12:54 PM,57.6,41.0,54,29.78,10.0,SW,11.5,16.1,N/A,,Clear,230,2013-05-14 16:54:00
1:14 PM,56.5,41.0,56,29.76,10.0,SSW,8.1,-,N/A,,Clear,210,2013-05-14 17:14:00
1:34 PM,56.5,41.4,57,29.78,10.0,SW,6.9,-,N/A,,Clear,220,2013-05-14 17:34:00
1:54 PM,55.9,41.7,59,29.78,10.0,West,5.8,-,N/A,,Clear,270,2013-05-14 17:54:00
2:14 PM,54.1,40.8,61,29.81,10.0,West,8.1,16.1,N/A,,Clear,260,2013-05-14 18:14:00
2:34 PM,52.2,40.6,65,29.79,10.0,WSW,6.9,-,N/A,,Clear,250,2013-05-14 18:34:00
2:54 PM,51.1,40.8,68,29.80,10.0,WSW,6.9,-,N/A,,Clear,240,2013-05-14 18:54:00
3:14 PM,53.8,41.2,62,29.79,10.0,WSW,5.8,-,N/A,,Clear,250,2013-05-14 19:14:00
3:35 PM,54.5,41.5,62,29.79,10.0,West,5.8,-,N/A,,Clear,260,2013-05-14 19:35:00
3:55 PM,55.9,41.5,58,29.78,10.0,WNW,3.5,-,N/A,,Clear,290,2013-05-14 19:55:00
4:15 PM,56.1,42.1,59,29.78,10.0,West,5.8,-,N/A,,Clear,270,2013-05-14 20:15:00
4:35 PM,55.6,42.1,60,29.76,10.0,Calm,Calm,-,N/A,,Clear,0,2013-05-14 20:35:00
4:55 PM,57.0,42.6,59,29.78,10.0,West,5.8,-,N/A,,Clear,280,2013-05-14 20:55:00
5:15 PM,57.4,42.8,58,29.75,10.0,Calm,Calm,-,N/A,,Clear,0,2013-05-14 21:15:00
5:35 PM,60.3,43.9,55,29.73,10.0,Calm,Calm,-,N/A,,Clear,0,2013-05-14 21:35:00
5:55 PM,63.9,44.8,50,29.72,10.0,SSE,4.6,-,N/A,,Clear,150,2013-05-14 21:55:00
6:15 PM,65.3,45.9,49,29.72,10.0,South,4.6,-,N/A,,Clear,190,2013-05-14 22:15:00
6:36 PM,64.8,46.2,51,29.71,10.0,Calm,Calm,-,N/A,,Clear,0,2013-05-14 22:36:00
6:56 PM,66.2,46.6,49,29.68,10.0,SSE,6.9,-,N/A,,Clear,150,2013-05-14 22:56:00
7:16 PM,66.7,46.9,49,29.67,10.0,SSE,5.8,-,N/A,,Clear,150,2013-05-14 23:16:00
7:36 PM,66.7,47.7,50,29.64,10.0,ESE,3.5,-,N/A,,Clear,110,2013-05-14 23:36:00
7:56 PM,67.1,47.7,50,29.64,10.0,SE,4.6,-,N/A,,Clear,130,2013-05-14 23:56:00
8:16 PM,66.2,49.1,54,29.63,10.0,Calm,Calm,-,N/A,,Clear,0,2013-05-15 00:16:00
8:36 PM,64.8,49.5,58,29.65,10.0,West,3.5,-,N/A,,Clear,270,2013-05-15 00:36:00
8:56 PM,58.3,45.1,62,29.67,10.0,WSW,4.6,-,N/A,,Clear,240,2013-05-15 00:56:00
9:16 PM,55.4,44.2,66,29.66,10.0,Calm,Calm,-,N/A,,Clear,0,2013-05-15 01:16:00
9:37 PM,55.6,45.3,68,29.66,10.0,Calm,Calm,-,N/A,,Clear,0,2013-05-15 01:37:00
9:57 PM,58.5,45.9,63,29.65,10.0,Calm,Calm,-,N/A,,Clear,0,2013-05-15 01:57:00
10:17 PM,54.5,45.9,73,29.64,10.0,Calm,Calm,-,N/A,,Scattered Clouds,0,2013-05-15 02:17:00
10:37 PM,54.9,47.1,75,29.63,10.0,Calm,Calm,-,N/A,,Scattered Clouds,0,2013-05-15 02:37:00
10:52 PM,54.7,47.3,76,29.62,10.0,SE,3.5,-,N/A,,Scattered Clouds,140,2013-05-15 02:52:00
11:12 PM,59.2,48.4,67,29.60,10.0,SSE,6.9,-,N/A,,Clear,150,2013-05-15 03:12:00
11:32 PM,61.9,48.7,62,29.58,10.0,SSE,8.1,-,N/A,,Clear,150,2013-05-15 03:32:00